KGPT METAR and TAF | Updated Today

KGPT METAR

Gulfport Biloxi International Airport

Observation time: 10 min. ago

KGPT 301853Z 16006KT 10SM CLR 18/04 A3021 RMK AO2 SLP229 T01830039

Need help? Read our tutorial on how to read METARs or read the parsed version below.

Gulfport Biloxi International Airport (KGPT) METAR

  • Weather conditions on Tue, 30 Nov 2021 18:53:00 +0000 (10 min. ago):
  • Present conditions: Dry
  • Clouds: Clear skies
  • Visibility: 16093 meters
  • Wind: 160 degrees at 6 knots
  • Temperature: 18 celsius
  • Dew point: 4 celsius
  • Pressure: 30.21 inHg
  • Remarks: AO2 SLP229 T01830039


Useful to know...

KGPT TAF

Gulfport Biloxi International Airport

KGPT 301735Z 3018/0118 00000KT P6SM SKC
Observation time: 88 min. ago
Need help? Read our tutorial on how to read TAFs or read the parsed version below.

Parsed version of TAF for Gulfport Biloxi International Airport (KGPT)

  • From 30 November at 18:00 UTC, to day 01 of the month at 18:00 UTC
  • Clouds: No significant changes expected

Airports near KGPT

KBIX Weather
IATA: BIX
Region: Biloxi

Keesler Air Force Base

Found in our database
KPQL Weather
Region: Pascagoula

Trent Lott International Airport

Not found in our database